createdAt,value
2019-05-25T00:00:08.050Z,101244.39
2019-05-25T00:01:13.661Z,101252.06
2019-05-25T00:02:19.041Z,101255.77
2019-05-25T00:03:24.860Z,101251.88
2019-05-25T00:04:29.848Z,101248.02
2019-05-25T00:05:35.530Z,101253.02
2019-05-25T00:06:40.866Z,101252.34
2019-05-25T00:07:46.664Z,101254.30
2019-05-25T00:08:51.794Z,101254.60
2019-05-25T00:09:57.340Z,101254.90
2019-05-25T00:11:02.378Z,101255.20
2019-05-25T00:12:08.063Z,101252.33
2019-05-25T00:13:13.066Z,101255.13
2019-05-25T00:14:18.925Z,101255.43
2019-05-25T00:15:23.930Z,101259.09
2019-05-25T00:16:29.699Z,101257.42
2019-05-25T00:17:35.774Z,101257.06
2019-05-25T00:18:41.313Z,101259.38
2019-05-25T00:19:46.675Z,101258.53
2019-05-25T00:20:52.660Z,101263.07
2019-05-25T00:21:57.667Z,101260.69
2019-05-25T00:23:03.346Z,101260.69
2019-05-25T00:24:12.055Z,101265.69
2019-05-25T00:25:15.692Z,101264.64
2019-05-25T00:26:21.026Z,101262.58
2019-05-25T00:27:26.553Z,101261.41
2019-05-25T00:28:31.556Z,101262.19
2019-05-25T00:29:37.131Z,101266.86
2019-05-25T00:30:42.057Z,101259.45
2019-05-25T00:31:47.685Z,101259.25
2019-05-25T00:32:52.718Z,101258.05
2019-05-25T00:33:58.520Z,101262.67
2019-05-25T00:35:03.879Z,101258.30
2019-05-25T00:36:09.598Z,101261.98
2019-05-25T00:37:14.900Z,101261.63
2019-05-25T00:38:20.513Z,101262.12
2019-05-25T00:39:25.907Z,101259.94
2019-05-25T00:40:31.566Z,101263.27
2019-05-25T00:41:36.654Z,101256.08
2019-05-25T00:42:42.862Z,101260.22
2019-05-25T00:43:47.895Z,101260.22
2019-05-25T00:44:54.354Z,101255.52
2019-05-25T00:45:59.335Z,101258.33
2019-05-25T00:47:04.959Z,101258.49
2019-05-25T00:48:10.108Z,101265.80
2019-05-25T00:49:15.666Z,101258.78
2019-05-25T00:50:20.828Z,101256.72
2019-05-25T00:51:26.749Z,101257.73
2019-05-25T00:52:32.039Z,101254.34
2019-05-25T00:53:37.648Z,101262.52
2019-05-25T00:54:42.712Z,101257.66
2019-05-25T00:55:48.303Z,101263.98
2019-05-25T00:56:53.364Z,101268.16
2019-05-25T00:57:59.313Z,101258.92
2019-05-25T00:59:04.422Z,101266.59
2019-05-25T01:00:10.954Z,101261.53
2019-05-25T01:01:15.970Z,101256.34
2019-05-25T01:02:21.526Z,101258.53
2019-05-25T01:03:26.495Z,101257.31
2019-05-25T01:04:32.157Z,101256.95
2019-05-25T01:05:37.245Z,101259.80
2019-05-25T01:06:42.853Z,101257.25
2019-05-25T01:07:47.900Z,101260.08
2019-05-25T01:08:53.690Z,101255.34
2019-05-25T01:09:58.705Z,101257.69
2019-05-25T01:11:04.415Z,101257.81
2019-05-25T01:12:09.654Z,101249.95
2019-05-25T01:13:15.324Z,101248.26
2019-05-25T01:14:20.380Z,101250.24
2019-05-25T01:15:26.221Z,101245.87
2019-05-25T01:16:31.334Z,101244.53
2019-05-25T01:17:37.165Z,101247.82
2019-05-25T01:18:42.202Z,101242.14
2019-05-25T01:19:47.739Z,101248.83
2019-05-25T01:20:52.673Z,101243.61
2019-05-25T01:21:58.278Z,101251.30
2019-05-25T01:23:03.312Z,101249.24
2019-05-25T01:24:09.292Z,101247.06
2019-05-25T01:25:15.173Z,101244.87
2019-05-25T01:26:20.784Z,101243.20
2019-05-25T01:27:25.926Z,101244.67
2019-05-25T01:28:31.541Z,101249.69
2019-05-25T01:29:36.680Z,101247.63
2019-05-25T01:30:42.375Z,101247.27
2019-05-25T01:31:47.307Z,101251.07
2019-05-25T01:32:53.001Z,101252.56
2019-05-25T01:33:58.069Z,101250.66
2019-05-25T01:35:03.725Z,101255.16
2019-05-25T01:36:08.782Z,101255.44
2019-05-25T01:37:14.694Z,101256.05
2019-05-25T01:38:19.708Z,101262.20
2019-05-25T01:39:25.364Z,101260.98
2019-05-25T01:40:30.474Z,101264.63
2019-05-25T01:41:36.196Z,101258.59
2019-05-25T01:42:41.473Z,101255.92
2019-05-25T01:43:47.309Z,101264.80
2019-05-25T01:44:52.664Z,101263.58
2019-05-25T01:45:58.306Z,101261.06
2019-05-25T01:47:03.426Z,101262.04
2019-05-25T01:48:09.340Z,101263.50
2019-05-25T01:49:14.490Z,101267.45
2019-05-25T01:50:20.087Z,101271.37
2019-05-25T01:51:29.442Z,101271.30
2019-05-25T01:52:35.094Z,101274.85
2019-05-25T01:53:40.057Z,101279.62
2019-05-25T01:54:58.977Z,101281.72
2019-05-25T01:55:52.952Z,101276.29
2019-05-25T01:56:58.597Z,101277.53
2019-05-25T01:58:03.611Z,101277.81
2019-05-25T01:59:09.153Z,101279.78
2019-05-25T02:00:14.730Z,101280.06
2019-05-25T02:01:20.343Z,101280.66
2019-05-25T02:02:25.369Z,101281.45
2019-05-25T02:03:31.278Z,101279.88
2019-05-25T02:04:36.322Z,101277.84
2019-05-25T02:05:42.248Z,101283.30
2019-05-25T02:06:47.277Z,101283.09
2019-05-25T02:07:52.807Z,101286.40
2019-05-25T02:08:58.038Z,101290.41
2019-05-25T02:10:35.440Z,101279.36
2019-05-25T02:11:40.878Z,101288.70
2019-05-25T02:12:46.925Z,101287.64
2019-05-25T02:16:41.319Z,101291.77
2019-05-25T02:17:47.035Z,101293.88
2019-05-25T02:18:52.186Z,101294.27
2019-05-25T02:19:59.035Z,101297.42
2019-05-25T02:21:04.058Z,101299.73
2019-05-25T02:22:09.693Z,101296.36
2019-05-25T02:23:14.876Z,101292.48
2019-05-25T02:24:20.828Z,101289.47
2019-05-25T02:25:26.115Z,101288.63
2019-05-25T02:26:31.624Z,101289.11
2019-05-25T02:27:36.848Z,101289.74
2019-05-25T02:28:42.401Z,101291.56
2019-05-25T02:29:47.468Z,101290.71
2019-05-25T02:30:53.080Z,101293.50
2019-05-25T02:31:58.083Z,101297.65
2019-05-25T02:33:03.782Z,101287.61
2019-05-25T02:34:08.767Z,101295.25
2019-05-25T02:35:25.480Z,101290.03
2019-05-25T02:36:30.425Z,101285.17
2019-05-25T02:37:36.024Z,101286.66
2019-05-25T02:38:41.344Z,101287.63
2019-05-25T02:39:47.121Z,101289.59
2019-05-25T02:40:52.169Z,101282.19
2019-05-25T02:41:57.720Z,101284.53
2019-05-25T02:43:05.803Z,101282.34
2019-05-25T02:44:11.371Z,101284.16
2019-05-25T02:45:16.721Z,101285.02
2019-05-25T02:46:22.333Z,101279.45
2019-05-25T02:47:27.578Z,101286.12
2019-05-25T02:48:33.247Z,101288.91
2019-05-25T02:49:38.277Z,101289.77
2019-05-25T02:50:43.934Z,101288.21
2019-05-25T02:51:49.054Z,101289.06
2019-05-25T02:52:54.704Z,101287.36
2019-05-25T02:53:59.789Z,101287.14
2019-05-25T02:55:05.950Z,101290.30
2019-05-25T02:56:11.004Z,101288.11
2019-05-25T02:57:16.575Z,101284.26
2019-05-25T02:58:21.855Z,101286.08
2019-05-25T02:59:27.467Z,101288.48
2019-05-25T03:00:33.561Z,101287.30
2019-05-25T03:01:39.131Z,101285.12
2019-05-25T03:02:44.242Z,101297.13
2019-05-25T03:03:49.954Z,101287.09
2019-05-25T03:04:54.939Z,101285.38
2019-05-25T03:06:00.720Z,101292.05
2019-05-25T03:07:05.922Z,101292.69
2019-05-25T03:08:11.615Z,101282.50
2019-05-25T03:09:18.160Z,101296.31
2019-05-25T03:10:23.891Z,101295.47
2019-05-25T03:11:29.380Z,101294.13
2019-05-25T03:12:35.615Z,101295.09
2019-05-25T03:13:41.530Z,101296.95
2019-05-25T03:14:47.422Z,101296.09
2019-05-25T03:15:53.976Z,101297.06
2019-05-25T03:16:59.527Z,101291.25
2019-05-25T03:18:04.761Z,101297.55
2019-05-25T03:19:10.308Z,101299.51
2019-05-25T03:20:15.372Z,101299.51
2019-05-25T03:21:20.880Z,101294.77
2019-05-25T03:22:25.875Z,101299.62
2019-05-25T03:23:31.709Z,101300.63
2019-05-25T03:24:36.709Z,101307.41
2019-05-25T03:25:49.551Z,101308.00
2019-05-25T03:26:48.908Z,101312.97
2019-05-25T03:27:54.761Z,101310.30
2019-05-25T03:28:59.784Z,101303.27
2019-05-25T03:30:06.727Z,101310.92
2019-05-25T03:31:11.739Z,101304.86
2019-05-25T03:32:17.581Z,101307.04
2019-05-25T03:33:22.576Z,101309.34
2019-05-25T03:34:28.146Z,101311.04
2019-05-25T03:35:33.337Z,101313.82
2019-05-25T03:36:39.024Z,101310.81
2019-05-25T03:37:44.030Z,101311.30
2019-05-25T03:38:49.879Z,101312.75
2019-05-25T03:39:54.862Z,101315.41
2019-05-25T03:41:00.616Z,101316.89
2019-05-25T03:42:05.708Z,101315.67
2019-05-25T03:43:11.279Z,101316.04
2019-05-25T03:44:16.211Z,101318.70
2019-05-25T03:45:21.896Z,101325.85
2019-05-25T03:46:26.932Z,101324.16
2019-05-25T03:47:32.555Z,101319.93
2019-05-25T03:48:37.563Z,101331.45
2019-05-25T03:49:43.419Z,101323.59
2019-05-25T03:50:48.387Z,101330.37
2019-05-25T03:51:53.896Z,101324.19
2019-05-25T03:52:58.911Z,101320.81
2019-05-25T03:54:04.530Z,101322.15
2019-05-25T03:55:09.709Z,101327.48
2019-05-25T03:56:15.295Z,101325.41
2019-05-25T03:57:20.301Z,101328.07
2019-05-25T03:58:25.841Z,101329.78
2019-05-25T03:59:30.850Z,101331.48
2019-05-25T04:00:37.622Z,101333.77
2019-05-25T04:01:42.573Z,101335.48
2019-05-25T04:02:51.089Z,101341.14
2019-05-25T04:03:56.130Z,101339.48
2019-05-25T04:05:02.168Z,101343.47
2019-05-25T04:06:07.362Z,101342.99
2019-05-25T04:07:12.984Z,101342.48
2019-05-25T04:08:17.984Z,101337.14
2019-05-25T04:09:23.784Z,101346.47
2019-05-25T04:10:29.057Z,101345.14
2019-05-25T04:11:34.619Z,101345.14
2019-05-25T04:12:39.555Z,101349.14
2019-05-25T04:13:45.694Z,101349.14
2019-05-25T04:14:50.690Z,101346.47
2019-05-25T04:15:56.336Z,101343.81
2019-05-25T04:17:01.260Z,101343.70
2019-05-25T04:18:07.332Z,101351.21
2019-05-25T04:19:12.330Z,101351.92
2019-05-25T04:20:18.099Z,101349.25
2019-05-25T04:21:23.131Z,101350.95
2019-05-25T04:22:28.737Z,101357.14
2019-05-25T04:23:33.720Z,101357.25
2019-05-25T04:24:39.339Z,101354.25
2019-05-25T04:25:44.255Z,101357.88
2019-05-25T04:26:49.852Z,101357.02
2019-05-25T04:27:54.810Z,101360.55
2019-05-25T04:29:00.388Z,101353.88
2019-05-25T04:30:06.018Z,101365.50
2019-05-25T04:31:11.607Z,101361.14
2019-05-25T04:32:16.557Z,101361.28
2019-05-25T04:33:22.169Z,101362.13
2019-05-25T04:34:27.482Z,101365.28
2019-05-25T04:35:33.100Z,101376.31
2019-05-25T04:36:38.362Z,101374.12
2019-05-25T04:37:43.900Z,101374.12
2019-05-25T04:38:48.906Z,101383.80
2019-05-25T04:39:54.691Z,101375.09
2019-05-25T04:40:59.619Z,101379.94
2019-05-25T04:42:05.312Z,101379.80
2019-05-25T04:43:10.556Z,101377.50
2019-05-25T04:44:16.198Z,101376.54
2019-05-25T04:45:21.263Z,101375.91
2019-05-25T04:46:26.966Z,101379.17
2019-05-25T04:47:32.141Z,101372.87
2019-05-25T04:48:37.719Z,101376.39
2019-05-25T04:49:44.147Z,101374.70
2019-05-25T04:50:50.008Z,101372.51
2019-05-25T04:51:55.067Z,101373.84
2019-05-25T04:53:00.660Z,101374.21
2019-05-25T04:54:05.714Z,101376.73
2019-05-25T04:55:11.534Z,101380.39
2019-05-25T04:56:16.462Z,101377.73
2019-05-25T04:57:22.255Z,101376.02
2019-05-25T04:58:27.263Z,101383.55
2019-05-25T04:59:32.784Z,101380.51
2019-05-25T05:00:37.720Z,101376.14
2019-05-25T05:01:43.288Z,101380.51
2019-05-25T05:02:48.452Z,101378.33
2019-05-25T05:03:54.310Z,101379.17
2019-05-25T05:04:59.320Z,101378.21
2019-05-25T05:06:05.125Z,101381.10
2019-05-25T05:07:10.408Z,101379.77
2019-05-25T05:08:16.007Z,101385.58
2019-05-25T05:09:20.958Z,101388.14
2019-05-25T05:10:26.516Z,101385.47
2019-05-25T05:11:32.191Z,101378.55
2019-05-25T05:12:37.695Z,101385.70
2019-05-25T05:13:42.651Z,101383.63
2019-05-25T05:14:48.959Z,101378.88
2019-05-25T05:15:54.322Z,101385.66
2019-05-25T05:17:00.270Z,101380.07
2019-05-25T05:18:05.382Z,101384.03
2019-05-25T05:19:11.757Z,101384.29
2019-05-25T05:20:16.893Z,101391.66
2019-05-25T05:21:22.479Z,101389.70
2019-05-25T05:22:28.451Z,101385.10
2019-05-25T05:23:34.939Z,101386.44
2019-05-25T05:24:40.946Z,101388.70
2019-05-25T05:25:47.166Z,101388.69
2019-05-25T05:26:56.154Z,101388.16
2019-05-25T05:28:01.835Z,101391.27
2019-05-25T05:29:19.400Z,101391.48
2019-05-25T05:30:38.494Z,101385.98
2019-05-25T05:31:45.235Z,101390.16
2019-05-25T05:32:57.522Z,101381.27
2019-05-25T05:34:08.389Z,101384.86
2019-05-25T05:35:17.301Z,101380.41
2019-05-25T05:36:35.028Z,101382.22
2019-05-25T05:37:59.417Z,101381.52
2019-05-25T05:39:14.490Z,101384.75
2019-05-25T05:40:27.020Z,101387.33
2019-05-25T05:41:38.072Z,101389.82
2019-05-25T05:42:48.418Z,101380.89
2019-05-25T05:44:02.033Z,101384.34
2019-05-25T05:45:09.126Z,101381.36
2019-05-25T05:46:22.244Z,101376.03
2019-05-25T05:47:32.762Z,101378.84
2019-05-25T05:48:44.960Z,101379.98
2019-05-25T05:50:02.889Z,101386.11
2019-05-25T05:51:22.759Z,101378.04
2019-05-25T05:52:39.229Z,101381.00
2019-05-25T05:53:55.943Z,101385.99
2019-05-25T05:55:05.282Z,101377.19
2019-05-25T05:56:15.104Z,101382.34
2019-05-25T05:57:24.441Z,101387.02
2019-05-25T05:58:48.586Z,101383.98
2019-05-25T05:59:58.077Z,101379.95
2019-05-25T06:01:06.358Z,101387.31
2019-05-25T06:02:12.550Z,101386.11
2019-05-25T06:03:19.891Z,101386.58
2019-05-25T06:04:25.987Z,101391.05
2019-05-25T06:05:35.346Z,101383.44
2019-05-25T06:06:40.923Z,101390.59
2019-05-25T06:07:46.099Z,101383.97
2019-05-25T06:08:51.650Z,101383.02
2019-05-25T06:09:56.711Z,101390.98
2019-05-25T06:11:02.554Z,101394.41
2019-05-25T06:12:07.649Z,101389.63
2019-05-25T06:13:13.264Z,101391.97
2019-05-25T06:14:18.174Z,101395.03
2019-05-25T06:15:23.801Z,101394.95
2019-05-25T06:16:28.845Z,101400.20
2019-05-25T06:17:34.471Z,101393.88
2019-05-25T06:18:39.490Z,101396.97
2019-05-25T06:19:44.988Z,101395.52
2019-05-25T06:20:49.933Z,101400.27
2019-05-25T06:21:55.473Z,101400.02
2019-05-25T06:23:00.408Z,101404.78
2019-05-25T06:24:06.069Z,101401.47
2019-05-25T06:25:12.331Z,101396.42
2019-05-25T06:26:17.846Z,101402.14
2019-05-25T06:27:27.367Z,101403.13
2019-05-25T06:28:30.221Z,101407.81
2019-05-25T06:29:35.450Z,101406.61
2019-05-25T06:30:41.020Z,101405.80
2019-05-25T06:31:46.029Z,101402.57
2019-05-25T06:32:51.668Z,101404.76
2019-05-25T06:33:56.565Z,101406.29
2019-05-25T06:35:02.400Z,101409.66
2019-05-25T06:36:07.501Z,101403.30
2019-05-25T06:37:13.120Z,101410.19
2019-05-25T06:38:18.153Z,101411.18
2019-05-25T06:39:24.205Z,101410.14
2019-05-25T06:40:29.187Z,101411.79
2019-05-25T06:41:34.780Z,101416.29
2019-05-25T06:42:39.874Z,101417.39
2019-05-25T06:43:45.769Z,101408.57
2019-05-25T06:44:50.719Z,101415.09
2019-05-25T06:45:56.586Z,101413.06
2019-05-25T06:47:01.588Z,101419.91
2019-05-25T06:48:07.480Z,101418.92
2019-05-25T06:49:12.539Z,101424.78
2019-05-25T06:50:18.907Z,101421.73
2019-05-25T06:51:23.973Z,101421.60
2019-05-25T06:52:29.816Z,101423.60
2019-05-25T06:53:34.868Z,101423.92
2019-05-25T06:54:43.080Z,101425.98
2019-05-25T06:55:48.167Z,101420.45
2019-05-25T06:56:54.002Z,101427.02
2019-05-25T06:57:59.082Z,101431.89
2019-05-25T06:59:05.470Z,101432.22
2019-05-25T07:00:11.241Z,101441.12
2019-05-25T07:01:16.957Z,101428.69
2019-05-25T07:02:22.717Z,101435.75
2019-05-25T07:03:28.393Z,101430.75
2019-05-25T07:04:33.442Z,101432.77
2019-05-25T07:05:39.127Z,101447.52
2019-05-25T07:06:44.338Z,101435.12
2019-05-25T07:07:49.860Z,101438.98
2019-05-25T07:08:55.066Z,101437.70
2019-05-25T07:10:00.686Z,101434.41
2019-05-25T07:11:05.683Z,101431.28
2019-05-25T07:12:11.198Z,101429.47
2019-05-25T07:13:16.209Z,101429.87
2019-05-25T07:14:21.785Z,101428.06
2019-05-25T07:15:26.931Z,101431.78
2019-05-25T07:16:32.511Z,101431.28
2019-05-25T07:17:37.782Z,101423.42
2019-05-25T07:18:43.452Z,101431.70
2019-05-25T07:19:48.541Z,101430.05
2019-05-25T07:20:54.301Z,101430.27
2019-05-25T07:21:59.706Z,101430.95
2019-05-25T07:23:05.619Z,101433.36
2019-05-25T07:24:10.650Z,101438.23
2019-05-25T07:25:20.015Z,101436.05
2019-05-25T07:26:23.176Z,101436.19
2019-05-25T07:27:29.037Z,101433.28
2019-05-25T07:28:34.190Z,101437.97
2019-05-25T07:29:39.929Z,101434.61
2019-05-25T07:30:46.660Z,101436.27
2019-05-25T07:31:52.780Z,101435.55
2019-05-25T07:32:57.984Z,101439.58
2019-05-25T07:34:03.894Z,101442.26
2019-05-25T07:35:10.326Z,101447.13
2019-05-25T07:36:16.416Z,101437.88
2019-05-25T07:37:21.416Z,101445.12
2019-05-25T07:38:27.016Z,101446.69
2019-05-25T07:39:31.978Z,101445.22
2019-05-25T07:40:37.804Z,101443.16
2019-05-25T07:41:42.846Z,101447.91
2019-05-25T07:42:48.440Z,101440.89
2019-05-25T07:43:53.582Z,101441.56
2019-05-25T07:44:59.486Z,101444.11
2019-05-25T07:46:04.535Z,101443.27
2019-05-25T07:47:10.135Z,101442.06
2019-05-25T07:48:15.227Z,101442.37
2019-05-25T07:49:20.913Z,101439.86
2019-05-25T07:50:25.979Z,101443.88
2019-05-25T07:51:31.494Z,101443.17
2019-05-25T07:52:36.642Z,101442.00
2019-05-25T07:53:42.200Z,101439.81
2019-05-25T07:54:47.201Z,101434.63
2019-05-25T07:55:52.747Z,101436.67
2019-05-25T07:56:58.086Z,101438.70
2019-05-25T07:58:16.482Z,101442.23
2019-05-25T07:59:10.237Z,101445.91
2019-05-25T08:00:16.909Z,101442.05
2019-05-25T08:01:22.133Z,101438.47
2019-05-25T08:02:27.833Z,101438.09
2019-05-25T08:03:33.123Z,101440.70
2019-05-25T08:04:39.096Z,101437.62
2019-05-25T08:05:44.047Z,101435.95
2019-05-25T08:06:49.564Z,101431.75
2019-05-25T08:07:54.619Z,101440.52
2019-05-25T08:09:00.123Z,101438.09
2019-05-25T08:10:05.583Z,101443.53
2019-05-25T08:11:11.189Z,101446.98
2019-05-25T08:12:16.148Z,101435.30
2019-05-25T08:13:21.656Z,101440.05
2019-05-25T08:14:26.853Z,101439.09
2019-05-25T08:15:32.469Z,101447.83
2019-05-25T08:16:37.770Z,101440.44
2019-05-25T08:17:43.422Z,101442.28
2019-05-25T08:18:48.432Z,101444.43
2019-05-25T08:19:54.478Z,101442.72
2019-05-25T08:20:59.752Z,101443.72
2019-05-25T08:22:05.424Z,101441.02
2019-05-25T08:23:10.366Z,101438.88
2019-05-25T08:24:16.193Z,101438.25
2019-05-25T08:25:21.497Z,101440.66
2019-05-25T08:26:27.132Z,101440.52
2019-05-25T08:27:32.107Z,101445.09
2019-05-25T08:28:37.667Z,101443.89
2019-05-25T08:29:42.835Z,101440.52
2019-05-25T08:30:48.529Z,101444.56
2019-05-25T08:31:53.600Z,101440.52
2019-05-25T08:32:59.220Z,101444.23
2019-05-25T08:34:04.276Z,101438.72
2019-05-25T08:35:10.007Z,101439.25
2019-05-25T08:36:15.063Z,101440.95
2019-05-25T08:37:20.645Z,101441.67
2019-05-25T08:38:25.915Z,101445.27
2019-05-25T08:39:31.484Z,101444.45
2019-05-25T08:40:36.682Z,101451.88
2019-05-25T08:41:45.355Z,101442.79
2019-05-25T08:42:49.247Z,101446.79
2019-05-25T08:43:54.774Z,101443.36
2019-05-25T08:45:00.062Z,101449.34
2019-05-25T08:46:05.653Z,101456.30
2019-05-25T08:47:10.609Z,101452.17
2019-05-25T08:48:16.287Z,101454.50
2019-05-25T08:49:21.289Z,101450.42
2019-05-25T08:50:37.660Z,101452.58
2019-05-25T08:51:33.981Z,101447.02
2019-05-25T08:52:39.652Z,101448.67
2019-05-25T08:53:46.789Z,101441.61
2019-05-25T08:54:51.989Z,101443.45
2019-05-25T08:55:57.437Z,101444.44
2019-05-25T08:57:03.241Z,101442.10
2019-05-25T08:58:08.841Z,101447.34
2019-05-25T08:59:14.822Z,101443.63
2019-05-25T09:00:20.288Z,101447.88
2019-05-25T09:01:25.891Z,101440.84
2019-05-25T09:02:30.942Z,101443.36
2019-05-25T09:03:36.455Z,101450.92
2019-05-25T09:04:41.438Z,101443.22
2019-05-25T09:05:47.180Z,101444.74
2019-05-25T09:06:52.283Z,101445.09
2019-05-25T09:07:57.972Z,101444.08
2019-05-25T09:09:02.982Z,101439.23
2019-05-25T09:10:09.417Z,101440.05
2019-05-25T09:11:14.480Z,101447.12
2019-05-25T09:12:20.131Z,101441.74
2019-05-25T09:13:25.114Z,101440.22
2019-05-25T09:14:31.219Z,101441.52
2019-05-25T09:15:36.183Z,101438.16
2019-05-25T09:16:41.998Z,101435.78
2019-05-25T09:17:46.914Z,101442.64
2019-05-25T09:18:52.452Z,101438.25
2019-05-25T09:19:57.390Z,101434.75
2019-05-25T09:21:03.015Z,101431.90
2019-05-25T09:22:08.267Z,101433.09
2019-05-25T09:23:14.142Z,101437.80
2019-05-25T09:24:19.277Z,101436.32
2019-05-25T09:25:24.814Z,101444.39
2019-05-25T09:26:30.081Z,101435.70
2019-05-25T09:27:36.019Z,101433.16
2019-05-25T09:28:40.973Z,101435.70
2019-05-25T09:29:46.533Z,101438.56
2019-05-25T09:30:51.556Z,101437.36
2019-05-25T09:31:57.153Z,101436.02
2019-05-25T09:33:02.442Z,101433.81
2019-05-25T09:34:08.137Z,101442.72
2019-05-25T09:35:14.695Z,101440.04
2019-05-25T09:36:20.321Z,101438.34
2019-05-25T09:37:25.341Z,101439.02
2019-05-25T09:38:31.294Z,101438.38
2019-05-25T09:39:36.297Z,101435.70
2019-05-25T09:40:41.824Z,101435.56
2019-05-25T09:41:46.778Z,101437.09
2019-05-25T09:42:52.671Z,101433.95
2019-05-25T09:43:58.443Z,101442.53
2019-05-25T09:45:04.459Z,101437.48
2019-05-25T09:46:09.404Z,101436.00
2019-05-25T09:47:14.998Z,101437.48
2019-05-25T09:48:20.177Z,101440.48
2019-05-25T09:49:25.837Z,101439.81
2019-05-25T09:50:31.307Z,101443.48
2019-05-25T09:51:37.137Z,101444.34
2019-05-25T09:52:42.246Z,101440.31
2019-05-25T09:53:47.928Z,101440.48
2019-05-25T09:54:55.687Z,101444.06
2019-05-25T09:56:00.729Z,101441.20
2019-05-25T09:57:05.776Z,101444.09
2019-05-25T09:58:11.577Z,101451.00
2019-05-25T09:59:20.040Z,101452.34
2019-05-25T10:00:24.448Z,101443.92
2019-05-25T10:01:29.822Z,101440.08
2019-05-25T10:02:35.454Z,101445.66
2019-05-25T10:03:40.636Z,101436.57
2019-05-25T10:04:46.665Z,101438.62
2019-05-25T10:05:51.998Z,101437.95
2019-05-25T10:06:58.043Z,101448.20
2019-05-25T10:08:03.513Z,101441.98
2019-05-25T10:09:09.255Z,101442.80
2019-05-25T10:10:14.577Z,101439.93
2019-05-25T10:11:20.266Z,101442.94
2019-05-25T10:12:25.761Z,101436.71
2019-05-25T10:13:31.320Z,101440.59
2019-05-25T10:14:36.282Z,101431.02
2019-05-25T10:15:41.963Z,101434.91
2019-05-25T10:16:47.286Z,101432.75
2019-05-25T10:17:52.916Z,101439.05
2019-05-25T10:18:58.005Z,101436.56
2019-05-25T10:20:03.986Z,101436.45
2019-05-25T10:21:09.011Z,101434.15
2019-05-25T10:22:14.607Z,101433.83
2019-05-25T10:23:19.525Z,101435.84
2019-05-25T10:24:25.141Z,101437.54
2019-05-25T10:25:30.285Z,101429.30
2019-05-25T10:26:35.865Z,101437.04
2019-05-25T10:27:40.778Z,101434.88
2019-05-25T10:28:46.317Z,101444.31
2019-05-25T10:29:51.458Z,101434.55
2019-05-25T10:30:57.048Z,101431.54
2019-05-25T10:32:02.327Z,101439.26
2019-05-25T10:33:07.807Z,101433.20
2019-05-25T10:34:12.890Z,101439.58
2019-05-25T10:35:18.732Z,101441.42
2019-05-25T10:36:23.966Z,101434.53
2019-05-25T10:37:29.848Z,101433.70
2019-05-25T10:38:34.910Z,101432.36
2019-05-25T10:39:40.471Z,101435.58
2019-05-25T10:40:46.142Z,101442.30
2019-05-25T10:41:51.826Z,101434.92
2019-05-25T10:42:56.826Z,101432.77
2019-05-25T10:44:02.444Z,101432.58
2019-05-25T10:45:08.107Z,101424.02
2019-05-25T10:46:13.938Z,101431.41
2019-05-25T10:47:19.189Z,101430.78
2019-05-25T10:48:25.067Z,101431.97
2019-05-25T10:49:30.056Z,101436.87
2019-05-25T10:50:35.901Z,101436.06
2019-05-25T10:51:41.256Z,101431.34
2019-05-25T10:52:46.765Z,101428.02
2019-05-25T10:53:51.825Z,101432.72
2019-05-25T10:54:57.679Z,101430.37
2019-05-25T10:56:02.699Z,101424.49
2019-05-25T10:57:08.408Z,101433.73
2019-05-25T10:58:13.644Z,101428.87
2019-05-25T10:59:19.238Z,101429.73
2019-05-25T11:00:24.642Z,101420.30
2019-05-25T11:01:30.217Z,101427.42
2019-05-25T11:02:35.479Z,101421.72
2019-05-25T11:03:41.433Z,101421.39
2019-05-25T11:04:46.346Z,101422.91
2019-05-25T11:05:52.319Z,101419.05
2019-05-25T11:06:57.490Z,101419.72
2019-05-25T11:08:03.118Z,101408.42
2019-05-25T11:09:08.284Z,101424.11
2019-05-25T11:10:14.840Z,101415.83
2019-05-25T11:11:19.861Z,101418.38
2019-05-25T11:12:26.141Z,101412.98
2019-05-25T11:13:31.211Z,101417.35
2019-05-25T11:14:37.019Z,101415.32
2019-05-25T11:15:42.087Z,101414.32
2019-05-25T11:16:47.750Z,101410.63
2019-05-25T11:17:52.681Z,101416.48
2019-05-25T11:18:58.419Z,101416.67
2019-05-25T11:20:03.558Z,101417.34
2019-05-25T11:21:09.263Z,101418.02
2019-05-25T11:22:14.289Z,101413.63
2019-05-25T11:23:19.854Z,101414.82
2019-05-25T11:24:25.014Z,101417.67
2019-05-25T11:25:30.628Z,101417.70
2019-05-25T11:26:35.823Z,101412.98
2019-05-25T11:27:42.032Z,101417.69
2019-05-25T11:28:47.024Z,101424.09
2019-05-25T11:30:06.043Z,101419.20
2019-05-25T11:30:59.234Z,101417.69
2019-05-25T11:32:06.117Z,101417.68
2019-05-25T11:33:12.424Z,101417.68
2019-05-25T11:34:18.022Z,101418.36
2019-05-25T11:35:23.178Z,101415.02
2019-05-25T11:36:28.915Z,101414.81
2019-05-25T11:37:33.874Z,101418.69
2019-05-25T11:38:39.614Z,101413.64
2019-05-25T11:39:44.559Z,101418.02
2019-05-25T11:40:50.491Z,101416.34
2019-05-25T11:41:55.504Z,101422.05
2019-05-25T11:43:01.361Z,101421.02
2019-05-25T11:44:06.705Z,101421.30
2019-05-25T11:45:13.946Z,101424.66
2019-05-25T11:46:19.028Z,101422.45
2019-05-25T11:47:24.871Z,101409.17
2019-05-25T11:48:29.795Z,101417.06
2019-05-25T11:49:35.286Z,101412.87
2019-05-25T11:50:40.362Z,101405.81
2019-05-25T11:51:45.972Z,101402.61
2019-05-25T11:52:51.049Z,101404.47
2019-05-25T11:53:56.515Z,101404.19
2019-05-25T11:55:01.799Z,101400.33
2019-05-25T11:56:07.491Z,101402.53
2019-05-25T11:57:12.427Z,101397.66
2019-05-25T11:58:18.076Z,101393.43
2019-05-25T11:59:23.127Z,101398.81
2019-05-25T12:00:28.714Z,101397.82
2019-05-25T12:01:33.752Z,101402.20
2019-05-25T12:02:39.508Z,101392.59
2019-05-25T12:03:44.497Z,101395.13
2019-05-25T12:04:50.077Z,101396.98
2019-05-25T12:05:55.063Z,101396.13
2019-05-25T12:07:00.700Z,101394.62
2019-05-25T12:08:05.852Z,101394.62
2019-05-25T12:09:11.358Z,101390.73
2019-05-25T12:10:16.900Z,101399.16
2019-05-25T12:11:22.487Z,101400.19
2019-05-25T12:12:27.453Z,101397.80
2019-05-25T12:13:33.043Z,101392.08
2019-05-25T12:14:38.197Z,101388.38
2019-05-25T12:15:43.897Z,101385.34
2019-05-25T12:16:48.894Z,101393.09
2019-05-25T12:17:54.445Z,101392.25
2019-05-25T12:18:59.354Z,101385.52
2019-05-25T12:20:05.869Z,101387.53
2019-05-25T12:21:10.866Z,101390.73
2019-05-25T12:22:16.394Z,101385.52
2019-05-25T12:23:21.563Z,101389.05
2019-05-25T12:24:27.366Z,101389.72
2019-05-25T12:25:32.445Z,101388.72
2019-05-25T12:26:38.049Z,101377.95
2019-05-25T12:27:43.108Z,101383.33
2019-05-25T12:28:48.632Z,101387.72
2019-05-25T12:29:53.819Z,101388.06
2019-05-25T12:30:59.417Z,101381.65
2019-05-25T12:32:04.715Z,101375.92
2019-05-25T12:33:10.498Z,101379.13
2019-05-25T12:34:15.523Z,101378.98